createdAt,value
2022-10-18T00:00:49.640Z,101060.16
2022-10-18T00:03:36.154Z,101066.31
2022-10-18T00:06:04.858Z,101057.91
2022-10-18T00:08:33.542Z,101064.53
2022-10-18T00:11:01.045Z,101064.72
2022-10-18T00:13:28.509Z,101057.88
2022-10-18T00:15:57.911Z,101064.47
2022-10-18T00:18:25.345Z,101066.03
2022-10-18T00:21:01.338Z,101065.25
2022-10-18T00:23:31.092Z,101060.22
2022-10-18T00:26:02.749Z,101065.47
2022-10-18T00:28:30.447Z,101065.09
2022-10-18T00:30:58.097Z,101058.34
2022-10-18T00:33:25.291Z,101063.50
2022-10-18T00:35:52.890Z,101063.41
2022-10-18T00:38:20.300Z,101068.28
2022-10-18T00:40:47.859Z,101063.81
2022-10-18T00:43:18.623Z,101057.72
2022-10-18T00:45:46.185Z,101053.00
2022-10-18T00:48:15.808Z,101056.56
2022-10-18T00:50:43.917Z,101039.06
2022-10-18T00:53:16.282Z,101041.72
2022-10-18T00:55:45.104Z,101036.38
2022-10-18T00:58:15.093Z,101040.38
2022-10-18T01:00:44.348Z,101036.56
2022-10-18T01:03:11.837Z,101043.84
2022-10-18T01:05:44.144Z,101041.53
2022-10-18T01:08:32.242Z,101029.53
2022-10-18T01:11:12.203Z,101030.69
2022-10-18T01:13:49.843Z,101035.06
2022-10-18T01:16:27.481Z,101032.44
2022-10-18T01:19:00.582Z,101032.16
2022-10-18T01:21:36.105Z,101034.03
2022-10-18T01:24:26.852Z,101024.09
2022-10-18T01:27:24.649Z,101033.91
2022-10-18T01:30:07.717Z,101037.78
2022-10-18T01:35:27.879Z,101036.84
2022-10-18T01:40:47.399Z,101032.44
2022-10-18T01:43:16.644Z,101027.47
2022-10-18T01:45:44.098Z,101027.78
2022-10-18T01:48:14.859Z,101036.53
2022-10-18T01:50:42.381Z,101029.38
2022-10-18T01:53:23.175Z,101021.84
2022-10-18T01:56:00.161Z,101022.03
2022-10-18T01:58:36.019Z,101024.75
2022-10-18T02:01:08.457Z,101018.69
2022-10-18T02:03:44.020Z,101016.44
2022-10-18T02:06:19.997Z,101014.25
2022-10-18T02:08:52.550Z,101013.94
2022-10-18T02:11:20.530Z,101010.41
2022-10-18T02:13:51.820Z,101009.50
2022-10-18T02:16:22.552Z,101008.25
2022-10-18T02:18:57.585Z,101012.81
2022-10-18T02:21:25.922Z,101010.75
2022-10-18T02:23:54.659Z,101008.59
2022-10-18T02:26:22.072Z,101005.94
2022-10-18T02:28:49.640Z,101007.97
2022-10-18T02:31:21.920Z,101014.94
2022-10-18T02:33:56.082Z,101013.25
2022-10-18T02:36:28.950Z,101008.88
2022-10-18T02:39:03.228Z,101008.34
2022-10-18T02:41:31.749Z,101007.16
2022-10-18T04:17:13.697Z,101075.44
2022-10-18T04:19:41.463Z,101076.13
2022-10-18T04:22:08.885Z,101074.00
2022-10-18T04:24:36.466Z,101071.38
2022-10-18T04:27:04.724Z,101073.69
2022-10-18T04:29:32.712Z,101076.53
2022-10-18T04:32:00.404Z,101070.56
2022-10-18T04:34:29.461Z,101078.97
2022-10-18T04:36:56.809Z,101077.78
2022-10-18T04:39:24.747Z,101078.13
2022-10-18T04:41:52.248Z,101082.84
2022-10-18T04:44:19.956Z,101078.78
2022-10-18T04:46:47.159Z,101081.53
2022-10-18T04:49:14.759Z,101080.78
2022-10-18T04:51:43.341Z,101075.28
2022-10-18T04:54:10.973Z,101074.34
2022-10-18T04:56:38.426Z,101081.44
2022-10-18T04:59:05.949Z,101079.25
2022-10-18T05:01:33.362Z,101075.19
2022-10-18T05:04:01.019Z,101072.34
2022-10-18T05:06:30.496Z,101078.75
2022-10-18T05:08:59.519Z,101082.72
2022-10-18T05:11:26.993Z,101074.72
2022-10-18T05:13:54.720Z,101076.63
2022-10-18T05:16:22.310Z,101074.56
2022-10-18T05:18:51.007Z,101073.28
2022-10-18T05:21:18.481Z,101075.19
2022-10-18T05:23:46.147Z,101066.44
2022-10-18T05:26:14.891Z,101073.25
2022-10-18T05:28:42.654Z,101083.31
2022-10-18T05:31:11.290Z,101079.09
2022-10-18T05:33:39.150Z,101074.03
2022-10-18T05:36:07.223Z,101073.81
2022-10-18T05:41:06.989Z,101070.91
2022-10-18T05:43:36.113Z,101072.81
2022-10-18T05:46:04.029Z,101081.13
2022-10-18T05:48:31.843Z,101075.06
2022-10-18T05:53:42.674Z,101067.91
2022-10-18T05:56:10.250Z,101068.75
2022-10-18T05:58:39.957Z,101074.91
2022-10-18T06:01:07.430Z,101075.97
2022-10-18T06:03:35.388Z,101072.44
2022-10-18T06:06:04.409Z,101070.22
2022-10-18T06:08:33.127Z,101077.66
2022-10-18T06:11:05.623Z,101070.34
2022-10-18T06:13:35.204Z,101074.56
2022-10-18T06:16:04.280Z,101079.59
2022-10-18T06:18:31.778Z,101079.84
2022-10-18T06:21:01.899Z,101079.25
2022-10-18T06:23:30.464Z,101081.81
2022-10-18T06:25:59.637Z,101081.34
2022-10-18T06:28:29.800Z,101078.91
2022-10-18T06:30:57.790Z,101070.72
2022-10-18T06:33:26.812Z,101068.59
2022-10-18T06:35:55.587Z,101070.28
2022-10-18T06:38:23.064Z,101068.13
2022-10-18T06:40:50.304Z,101076.22
2022-10-18T06:43:20.960Z,101084.16
2022-10-18T06:45:49.043Z,101084.97
2022-10-18T06:48:17.180Z,101082.06
2022-10-18T06:50:53.572Z,101075.66
2022-10-18T06:53:21.628Z,101084.59
2022-10-18T06:55:49.043Z,101091.34
2022-10-18T06:58:16.897Z,101090.16
2022-10-18T07:00:44.597Z,101090.97
2022-10-18T07:03:13.991Z,101078.22
2022-10-18T07:05:41.391Z,101085.75
2022-10-18T07:08:10.434Z,101086.56
2022-10-18T07:10:37.760Z,101093.09
2022-10-18T07:13:30.907Z,101091.25
2022-10-18T07:16:04.749Z,101102.72
2022-10-18T07:18:33.265Z,101096.72
2022-10-18T07:21:02.305Z,101098.88
2022-10-18T07:23:32.778Z,101102.69
2022-10-18T07:26:00.136Z,101110.38
2022-10-18T07:28:28.508Z,101103.97
2022-10-18T07:30:56.426Z,101112.66
2022-10-18T07:33:24.157Z,101110.59
2022-10-18T07:35:51.481Z,101104.47
2022-10-18T07:38:19.046Z,101111.47
2022-10-18T07:40:47.858Z,101108.13
2022-10-18T07:43:15.468Z,101101.75
2022-10-18T07:45:51.959Z,101103.19
2022-10-18T07:48:19.692Z,101097.88
2022-10-18T07:50:47.169Z,101097.84
2022-10-18T07:53:15.145Z,101098.38
2022-10-18T07:55:42.496Z,101095.66
2022-10-18T07:58:11.698Z,101095.34
2022-10-18T08:00:39.670Z,101095.19
2022-10-18T08:05:53.043Z,101083.50
2022-10-18T08:08:21.364Z,101079.94
2022-10-18T08:10:48.771Z,101088.31
2022-10-18T08:13:18.042Z,101078.16
2022-10-18T08:15:46.291Z,101084.66
2022-10-18T08:18:13.944Z,101088.47
2022-10-18T08:20:44.256Z,101077.53
2022-10-18T08:23:12.732Z,101075.25
2022-10-18T08:25:40.253Z,101073.34
2022-10-18T08:28:08.254Z,101073.56
2022-10-18T08:30:36.973Z,101068.31
2022-10-18T08:33:04.612Z,101061.81
2022-10-18T08:35:32.300Z,101058.25
2022-10-18T08:38:00.011Z,101057.19
2022-10-18T08:40:27.946Z,101054.19
2022-10-18T08:43:03.516Z,101049.06
2022-10-18T08:45:42.022Z,101049.53
2022-10-18T08:48:20.489Z,101053.28
2022-10-18T08:50:49.745Z,101049.78
2022-10-18T08:53:23.247Z,101049.72
2022-10-18T08:55:54.878Z,101046.34
2022-10-18T08:58:24.214Z,101042.03
2022-10-18T09:01:03.188Z,101031.25
2022-10-18T09:03:56.841Z,101020.63
2022-10-18T09:06:30.922Z,101018.97
2022-10-18T09:09:20.788Z,101015.81
2022-10-18T09:12:01.872Z,101010.06
2022-10-18T09:14:54.479Z,101008.00
2022-10-18T09:17:33.119Z,101001.25
2022-10-18T09:20:23.249Z,100995.38
2022-10-18T09:22:54.775Z,100996.88
2022-10-18T09:25:26.502Z,100990.13
2022-10-18T09:27:56.345Z,100993.84
2022-10-18T09:30:37.241Z,100990.28
2022-10-18T09:33:19.978Z,100993.19
2022-10-18T09:35:53.727Z,100985.69
2022-10-18T09:38:26.588Z,100986.91
2022-10-18T09:40:58.685Z,100987.16
2022-10-18T09:43:37.390Z,100980.53
2022-10-18T09:46:05.759Z,100980.75
2022-10-18T09:48:39.012Z,100977.78
2022-10-18T09:51:12.539Z,100981.19
2022-10-18T09:53:46.252Z,100977.38
2022-10-18T09:56:17.928Z,100967.72
2022-10-18T09:58:47.371Z,100946.75
2022-10-18T10:01:19.725Z,100947.94
2022-10-18T10:03:47.275Z,100942.53
2022-10-18T10:06:22.734Z,100942.47
2022-10-18T10:08:55.453Z,100937.25
2022-10-18T10:11:29.252Z,100942.88
2022-10-18T10:13:58.096Z,100943.81
2022-10-18T10:16:27.228Z,100941.63
2022-10-18T10:18:55.109Z,100945.59
2022-10-18T10:21:24.882Z,100953.03
2022-10-18T10:23:54.665Z,100951.19
2022-10-18T10:26:24.202Z,100946.56
2022-10-18T10:28:52.225Z,100947.50
2022-10-18T10:31:27.838Z,100942.00
2022-10-18T10:34:01.146Z,100931.53
2022-10-18T10:36:31.802Z,100930.03
2022-10-18T10:39:04.968Z,100921.53
2022-10-18T10:41:33.537Z,100922.56
2022-10-18T10:44:03.895Z,100920.06
2022-10-18T10:46:36.524Z,100916.00
2022-10-18T10:49:34.931Z,100916.50
2022-10-18T10:52:08.333Z,100914.69
2022-10-18T10:54:50.420Z,100905.28
2022-10-18T10:57:24.092Z,100910.00
2022-10-18T10:59:53.463Z,100913.16
2022-10-18T11:02:22.673Z,100903.25
2022-10-18T11:04:51.832Z,100898.94
2022-10-18T11:07:27.584Z,100900.50
2022-10-18T11:10:02.363Z,100895.38
2022-10-18T11:12:35.036Z,100894.28
2022-10-18T11:15:20.769Z,100895.84
2022-10-18T11:18:02.594Z,100881.88
2022-10-18T11:20:35.528Z,100881.72
2022-10-18T11:23:10.593Z,100874.72
2022-10-18T11:25:57.806Z,100876.63
2022-10-18T11:28:39.210Z,100867.03
2022-10-18T11:31:14.544Z,100855.09
2022-10-18T11:34:08.723Z,100832.56
2022-10-18T11:36:54.617Z,100826.41
2022-10-18T11:39:43.338Z,100839.88
2022-10-18T11:42:21.834Z,100842.38
2022-10-18T11:44:59.233Z,100828.75
2022-10-18T11:47:40.796Z,100824.84
2022-10-18T11:50:25.092Z,100816.38
2022-10-18T11:53:02.486Z,100820.41
2022-10-18T11:55:42.148Z,100812.22
2022-10-18T11:58:26.716Z,100808.94
2022-10-18T12:01:01.594Z,100802.97
2022-10-18T12:03:37.595Z,100795.59
2022-10-18T12:06:12.491Z,100799.91
2022-10-18T12:08:44.532Z,100788.09
2022-10-18T12:11:18.150Z,100777.00
2022-10-18T12:13:48.987Z,100775.09
2022-10-18T12:16:33.570Z,100773.22
2022-10-18T12:19:15.598Z,100766.03
2022-10-18T12:21:43.330Z,100763.06
2022-10-18T12:24:16.907Z,100762.47
2022-10-18T12:26:47.950Z,100755.38
2022-10-18T12:29:25.717Z,100761.59
2022-10-18T12:31:57.350Z,100760.28
2022-10-18T12:34:35.455Z,100761.53
2022-10-18T12:37:37.615Z,100761.59
2022-10-18T12:40:16.772Z,100759.03
2022-10-18T12:42:52.890Z,100745.34
2022-10-18T12:45:28.603Z,100746.41
2022-10-18T12:48:00.429Z,100736.69
2022-10-18T12:50:32.573Z,100723.38
2022-10-18T12:53:16.644Z,100718.25
2022-10-18T12:55:45.592Z,100710.16
2022-10-18T12:58:27.053Z,100717.34
2022-10-18T13:00:56.795Z,100712.69
2022-10-18T13:04:00.552Z,100710.84
2022-10-18T13:07:06.072Z,100713.47
2022-10-18T13:09:35.298Z,100714.81
2022-10-18T13:12:52.373Z,100716.56
2022-10-18T13:15:40.965Z,100711.22
2022-10-18T13:18:19.706Z,100704.25
2022-10-18T13:21:09.404Z,100703.38
2022-10-18T13:23:49.078Z,100702.22
2022-10-18T13:26:23.083Z,100703.94
2022-10-18T13:28:57.023Z,100710.59
2022-10-18T13:31:37.605Z,100708.78
2022-10-18T13:34:23.402Z,100716.00
2022-10-18T13:36:57.766Z,100715.44
2022-10-18T13:39:26.263Z,100712.84
2022-10-18T13:42:20.669Z,100713.78
2022-10-18T13:44:48.205Z,100725.75
2022-10-18T13:47:32.988Z,100749.66
2022-10-18T13:50:36.246Z,100769.94
2022-10-18T13:53:34.455Z,100777.38
2022-10-18T13:56:26.683Z,100781.97
2022-10-18T13:59:14.951Z,100786.03
2022-10-18T14:01:55.918Z,100800.31
2022-10-18T14:05:06.196Z,100820.28
2022-10-18T14:07:43.581Z,100813.97
2022-10-18T14:10:33.314Z,100837.34
2022-10-18T14:13:21.579Z,100838.22
2022-10-18T14:15:51.895Z,100854.56
2022-10-18T14:18:26.400Z,100863.78
2022-10-18T14:21:13.235Z,100865.41
2022-10-18T14:23:44.136Z,100864.97
2022-10-18T14:26:15.268Z,100875.28
2022-10-18T14:28:58.973Z,100874.34
2022-10-18T14:31:28.218Z,100870.38
2022-10-18T14:33:58.602Z,100879.75
2022-10-18T14:36:34.185Z,100863.72
2022-10-18T14:39:04.056Z,100868.31
2022-10-18T14:41:33.176Z,100870.69
2022-10-18T14:44:18.578Z,100862.56
2022-10-18T14:46:48.571Z,100858.81
2022-10-18T14:49:17.186Z,100861.66
2022-10-18T14:51:48.832Z,100866.16
2022-10-18T14:54:19.524Z,100882.25
2022-10-18T14:56:48.237Z,100883.97
2022-10-18T14:59:21.060Z,100886.63
2022-10-18T15:01:55.233Z,100893.13
2022-10-18T15:04:27.792Z,100900.59
2022-10-18T15:06:59.384Z,100900.00
2022-10-18T15:11:55.140Z,100903.97
2022-10-18T15:14:23.013Z,100909.34
2022-10-18T15:16:59.376Z,100916.72
2022-10-18T15:19:33.709Z,100918.72
2022-10-18T15:25:13.512Z,100918.88
2022-10-18T15:27:43.437Z,100921.78
2022-10-18T15:30:18.479Z,100932.84
2022-10-18T15:32:52.089Z,100941.81
2022-10-18T15:35:26.195Z,100937.66
2022-10-18T15:37:56.890Z,100942.06
2022-10-18T15:40:45.212Z,100927.91
2022-10-18T15:43:36.318Z,100931.53
2022-10-18T15:46:06.575Z,100929.38
2022-10-18T15:48:36.892Z,100924.06
2022-10-18T15:51:06.384Z,100928.03
2022-10-18T15:53:50.725Z,100925.00
2022-10-18T15:56:36.406Z,100919.44
2022-10-18T15:59:07.057Z,100927.91
2022-10-18T16:01:42.620Z,100937.34
2022-10-18T16:04:17.122Z,100940.97
2022-10-18T16:06:44.897Z,100943.03
2022-10-18T16:09:17.723Z,100941.72
2022-10-18T16:11:45.726Z,100948.59
2022-10-18T16:14:13.810Z,100953.91
2022-10-18T16:16:41.509Z,100959.88
2022-10-18T16:19:13.580Z,100958.41
2022-10-18T16:21:41.463Z,100960.50
2022-10-18T16:24:15.877Z,100962.53
2022-10-18T16:26:43.259Z,100973.19
2022-10-18T16:29:13.759Z,100969.13
2022-10-18T16:31:41.659Z,100965.47
2022-10-18T16:34:09.395Z,100968.03
2022-10-18T16:36:37.013Z,100971.03
2022-10-18T16:39:07.338Z,100970.66
2022-10-18T16:41:36.155Z,100969.59
2022-10-18T16:44:03.942Z,100976.59
2022-10-18T16:46:33.403Z,100980.19
2022-10-18T16:49:02.055Z,100982.91
2022-10-18T16:51:29.633Z,100985.31
2022-10-18T16:53:57.415Z,100989.25
2022-10-18T16:56:27.014Z,100992.28
2022-10-18T16:58:56.426Z,100993.31
2022-10-18T17:01:24.676Z,100998.47
2022-10-18T17:03:52.859Z,101001.81
2022-10-18T17:06:23.079Z,101001.97
2022-10-18T17:08:52.292Z,101003.44
2022-10-18T17:11:21.141Z,101012.97
2022-10-18T17:13:48.959Z,101007.84
2022-10-18T17:16:24.090Z,101017.47
2022-10-18T17:18:51.926Z,101011.19
2022-10-18T17:21:19.646Z,101023.28
2022-10-18T17:23:47.992Z,101028.50
2022-10-18T17:26:28.356Z,101040.56
2022-10-18T17:28:59.483Z,101036.91
2022-10-18T17:31:29.475Z,101046.28
2022-10-18T17:33:58.210Z,101047.78
2022-10-18T17:36:26.445Z,101045.50
2022-10-18T17:38:56.710Z,101034.19
2022-10-18T17:41:24.244Z,101036.34
2022-10-18T17:43:52.303Z,101039.72
2022-10-18T17:46:20.118Z,101038.53
2022-10-18T17:48:50.904Z,101041.25
2022-10-18T17:51:18.643Z,101038.78
2022-10-18T17:53:46.755Z,101038.69
2022-10-18T17:56:14.747Z,101045.41
2022-10-18T17:58:42.624Z,101049.19
2022-10-18T18:01:11.642Z,101051.31
2022-10-18T18:03:39.801Z,101058.38
2022-10-18T18:06:17.271Z,101057.53
2022-10-18T18:08:45.743Z,101054.81
2022-10-18T18:11:13.412Z,101046.56
2022-10-18T18:13:41.405Z,101054.69
2022-10-18T18:16:13.902Z,101052.63
2022-10-18T18:18:42.500Z,101049.47
2022-10-18T18:21:09.880Z,101041.59
2022-10-18T18:23:39.314Z,101044.41
2022-10-18T18:26:07.317Z,101041.59
2022-10-18T18:28:35.814Z,101036.81
2022-10-18T18:31:06.504Z,101044.69
2022-10-18T18:33:34.542Z,101051.22
2022-10-18T18:36:01.870Z,101049.81
2022-10-18T18:38:29.905Z,101052.72
2022-10-18T18:41:06.411Z,101046.84
2022-10-18T18:43:34.929Z,101045.47
2022-10-18T18:46:02.681Z,101046.84
2022-10-18T18:48:32.440Z,101062.19
2022-10-18T18:51:00.303Z,101050.19
2022-10-18T18:53:29.659Z,101047.78
2022-10-18T18:56:02.388Z,101045.53
2022-10-18T18:58:32.515Z,101042.25
2022-10-18T19:00:59.939Z,101042.75
2022-10-18T19:03:32.111Z,101046.28
2022-10-18T19:06:05.503Z,101040.66
2022-10-18T19:08:36.141Z,101047.22
2022-10-18T19:11:08.061Z,101039.91
2022-10-18T19:13:38.511Z,101044.31
2022-10-18T19:16:27.163Z,101046.09
2022-10-18T19:18:59.955Z,101046.09
2022-10-18T19:21:29.568Z,101057.03
2022-10-18T19:23:57.860Z,101048.44
2022-10-18T19:26:32.142Z,101048.13
2022-10-18T19:29:08.106Z,101056.69
2022-10-18T19:31:36.656Z,101058.63
2022-10-18T19:34:05.886Z,101048.22
2022-10-18T19:36:33.608Z,101046.22
2022-10-18T19:39:01.256Z,101045.41
2022-10-18T19:41:28.898Z,101048.00
2022-10-18T19:43:57.242Z,101041.59
2022-10-18T19:46:26.543Z,101046.94
2022-10-18T19:48:54.136Z,101043.66
2022-10-18T19:51:25.526Z,101041.41
2022-10-18T19:53:56.667Z,101037.09
2022-10-18T19:56:26.751Z,101039.72
2022-10-18T19:58:58.346Z,101047.41
2022-10-18T20:01:28.561Z,101037.41
2022-10-18T20:03:57.051Z,101040.50
2022-10-18T20:06:24.567Z,101046.28
2022-10-18T20:08:52.760Z,101050.97
2022-10-18T20:11:21.759Z,101048.72
2022-10-18T20:13:50.457Z,101049.66
2022-10-18T20:16:24.200Z,101046.75
2022-10-18T20:19:00.767Z,101036.53
2022-10-18T20:21:30.027Z,101045.25
2022-10-18T20:23:58.245Z,101038.88
2022-10-18T20:26:25.796Z,101043.09
2022-10-18T20:28:55.023Z,101046.84
2022-10-18T20:31:24.113Z,101047.88
2022-10-18T20:33:54.793Z,101050.00
2022-10-18T20:36:24.120Z,101047.22
2022-10-18T20:38:52.352Z,101051.03
2022-10-18T20:41:21.632Z,101050.84
2022-10-18T20:43:53.685Z,101048.72
2022-10-18T20:46:21.829Z,101051.41
2022-10-18T20:48:50.284Z,101046.72
2022-10-18T20:51:18.540Z,101053.44
2022-10-18T20:53:47.991Z,101051.22
2022-10-18T20:56:17.792Z,101059.81
2022-10-18T20:58:46.823Z,101054.47
2022-10-18T21:01:16.946Z,101054.75
2022-10-18T21:03:46.855Z,101054.47
2022-10-18T21:06:16.147Z,101052.44
2022-10-18T21:08:44.725Z,101048.41
2022-10-18T21:11:14.221Z,101053.16
2022-10-18T21:13:41.951Z,101054.38
2022-10-18T21:16:09.523Z,101052.97
2022-10-18T21:18:37.704Z,101058.41
2022-10-18T21:21:10.529Z,101060.47
2022-10-18T21:23:38.589Z,101058.34
2022-10-18T21:26:07.184Z,101060.66
2022-10-18T21:28:36.481Z,101063.28
2022-10-18T21:31:12.500Z,101058.78
2022-10-18T21:33:40.596Z,101061.34
2022-10-18T21:36:11.237Z,101053.94
2022-10-18T21:38:39.498Z,101053.44
2022-10-18T21:41:11.367Z,101044.59
2022-10-18T21:43:44.355Z,101056.34
2022-10-18T21:46:15.731Z,101057.34
2022-10-18T21:48:45.394Z,101055.44
2022-10-18T21:51:13.910Z,101043.38
2022-10-18T21:53:43.183Z,101049.00
2022-10-18T21:56:12.683Z,101054.59
2022-10-18T21:58:42.506Z,101056.47
2022-10-18T22:01:11.576Z,101046.53
2022-10-18T22:03:39.949Z,101048.47
2022-10-18T22:06:10.203Z,101050.25
2022-10-18T22:08:42.956Z,101048.31
2022-10-18T22:11:13.037Z,101049.56
2022-10-18T22:13:42.700Z,101048.63
2022-10-18T22:16:12.200Z,101041.16
2022-10-18T22:18:40.565Z,101040.09
2022-10-18T22:21:10.083Z,101039.16
2022-10-18T22:23:39.587Z,101048.03
2022-10-18T22:26:12.521Z,101040.47
2022-10-18T22:28:43.908Z,101042.53
2022-10-18T22:31:15.889Z,101041.38
2022-10-18T22:33:44.263Z,101042.41
2022-10-18T22:36:12.638Z,101039.22
2022-10-18T22:38:40.438Z,101039.56
2022-10-18T22:41:08.931Z,101046.69
2022-10-18T22:43:38.685Z,101046.34
2022-10-18T22:46:09.882Z,101030.41
2022-10-18T22:56:55.906Z,101030.69
2022-10-18T22:59:23.784Z,101027.88
2022-10-18T23:01:52.813Z,101036.09
2022-10-18T23:04:20.518Z,101038.88
2022-10-18T23:06:47.836Z,101031.84
2022-10-18T23:09:15.738Z,101035.50
2022-10-18T23:11:43.542Z,101028.53
2022-10-18T23:14:11.709Z,101034.50
2022-10-18T23:16:39.249Z,101035.44
2022-10-18T23:19:11.328Z,101027.41
2022-10-18T23:21:38.735Z,101031.31
2022-10-18T23:24:06.502Z,101025.72
2022-10-18T23:26:34.258Z,101020.94
2022-10-18T23:29:02.282Z,101017.53
2022-10-18T23:31:31.533Z,101018.22
2022-10-18T23:34:01.887Z,101008.53
2022-10-18T23:36:31.794Z,101013.56
2022-10-18T23:38:59.529Z,101006.66
2022-10-18T23:41:26.920Z,101013.94
2022-10-18T23:43:54.532Z,101020.16
2022-10-18T23:46:21.966Z,101012.38
2022-10-18T23:48:50.326Z,101016.09
2022-10-18T23:51:18.162Z,101016.75
2022-10-18T23:53:47.276Z,101013.91
2022-10-18T23:56:16.364Z,101013.56
2022-10-18T23:58:45.035Z,101015.44
